sensor_id;sensor_type;location;lat;lon;timestamp;temperature;humidity
31038;DHT22;17702;47.590;7.666;2023-04-03T00:01:19;9.70;99.90
31038;DHT22;17702;47.590;7.666;2023-04-03T00:03:45;9.70;99.90
31038;DHT22;17702;47.590;7.666;2023-04-03T00:06:11;9.70;99.90
31038;DHT22;17702;47.590;7.666;2023-04-03T00:08:37;9.70;99.90
31038;DHT22;17702;47.590;7.666;2023-04-03T00:11:03;9.60;99.90
31038;DHT22;17702;47.590;7.666;2023-04-03T00:13:28;9.60;99.90
31038;DHT22;17702;47.590;7.666;2023-04-03T00:15:54;9.50;99.90
31038;DHT22;17702;47.590;7.666;2023-04-03T00:18:20;9.50;99.90
31038;DHT22;17702;47.590;7.666;2023-04-03T00:20:46;9.40;99.90
31038;DHT22;17702;47.590;7.666;2023-04-03T00:23:11;9.40;99.90
31038;DHT22;17702;47.590;7.666;2023-04-03T00:25:37;9.30;99.90
31038;DHT22;17702;47.590;7.666;2023-04-03T00:28:02;9.40;99.90
31038;DHT22;17702;47.590;7.666;2023-04-03T00:30:28;9.40;99.90
31038;DHT22;17702;47.590;7.666;2023-04-03T00:32:53;9.30;99.90
31038;DHT22;17702;47.590;7.666;2023-04-03T00:35:19;9.30;99.90
31038;DHT22;17702;47.590;7.666;2023-04-03T00:37:45;9.30;99.90
31038;DHT22;17702;47.590;7.666;2023-04-03T00:40:12;9.20;99.90
31038;DHT22;17702;47.590;7.666;2023-04-03T00:42:38;9.20;99.90
31038;DHT22;17702;47.590;7.666;2023-04-03T00:47:30;9.30;99.90
31038;DHT22;17702;47.590;7.666;2023-04-03T00:49:56;9.20;99.90
31038;DHT22;17702;47.590;7.666;2023-04-03T00:52:23;9.30;99.90
31038;DHT22;17702;47.590;7.666;2023-04-03T00:54:50;9.20;99.90
31038;DHT22;17702;47.590;7.666;2023-04-03T00:57:17;9.20;99.90
31038;DHT22;17702;47.590;7.666;2023-04-03T00:59:44;9.10;99.90
31038;DHT22;17702;47.590;7.666;2023-04-03T01:02:11;9.00;99.90
31038;DHT22;17702;47.590;7.666;2023-04-03T01:04:38;9.00;99.90
31038;DHT22;17702;47.590;7.666;2023-04-03T01:07:12;8.90;99.90
31038;DHT22;17702;47.590;7.666;2023-04-03T01:09:40;8.80;99.90
31038;DHT22;17702;47.590;7.666;2023-04-03T01:14:44;8.90;99.90
31038;DHT22;17702;47.590;7.666;2023-04-03T01:17:29;9.00;99.90
31038;DHT22;17702;47.590;7.666;2023-04-03T01:25:19;8.80;99.90
31038;DHT22;17702;47.590;7.666;2023-04-03T01:27:44;8.80;99.90
31038;DHT22;17702;47.590;7.666;2023-04-03T01:30:10;8.70;99.90
31038;DHT22;17702;47.590;7.666;2023-04-03T01:32:35;8.70;99.90
31038;DHT22;17702;47.590;7.666;2023-04-03T01:35:01;8.70;99.90
31038;DHT22;17702;47.590;7.666;2023-04-03T01:37:26;8.60;99.90
31038;DHT22;17702;47.590;7.666;2023-04-03T01:39:52;8.50;99.90
31038;DHT22;17702;47.590;7.666;2023-04-03T01:42:17;8.50;99.90
31038;DHT22;17702;47.590;7.666;2023-04-03T01:44:43;8.50;99.90
31038;DHT22;17702;47.590;7.666;2023-04-03T01:47:08;8.50;99.90
31038;DHT22;17702;47.590;7.666;2023-04-03T01:49:34;8.50;99.90
31038;DHT22;17702;47.590;7.666;2023-04-03T01:51:59;8.40;99.90
31038;DHT22;17702;47.590;7.666;2023-04-03T01:54:25;8.40;99.90
31038;DHT22;17702;47.590;7.666;2023-04-03T01:56:50;8.40;99.90
31038;DHT22;17702;47.590;7.666;2023-04-03T01:59:16;8.30;99.90
31038;DHT22;17702;47.590;7.666;2023-04-03T02:01:43;8.20;99.90
31038;DHT22;17702;47.590;7.666;2023-04-03T02:04:10;8.30;99.90
31038;DHT22;17702;47.590;7.666;2023-04-03T02:06:36;8.30;99.90
31038;DHT22;17702;47.590;7.666;2023-04-03T02:09:02;8.20;99.90
31038;DHT22;17702;47.590;7.666;2023-04-03T02:11:27;8.10;99.90
31038;DHT22;17702;47.590;7.666;2023-04-03T02:13:53;8.20;99.90
31038;DHT22;17702;47.590;7.666;2023-04-03T02:16:18;8.10;99.90
31038;DHT22;17702;47.590;7.666;2023-04-03T02:18:44;8.10;99.90
31038;DHT22;17702;47.590;7.666;2023-04-03T02:21:10;8.10;99.90
31038;DHT22;17702;47.590;7.666;2023-04-03T02:23:35;8.00;99.90
31038;DHT22;17702;47.590;7.666;2023-04-03T02:26:09;8.00;99.90
31038;DHT22;17702;47.590;7.666;2023-04-03T02:28:35;8.10;99.90
31038;DHT22;17702;47.590;7.666;2023-04-03T02:31:01;8.00;99.90
31038;DHT22;17702;47.590;7.666;2023-04-03T02:33:27;8.00;99.90
31038;DHT22;17702;47.590;7.666;2023-04-03T02:35:55;8.00;99.90
31038;DHT22;17702;47.590;7.666;2023-04-03T02:38:21;8.00;99.90
31038;DHT22;17702;47.590;7.666;2023-04-03T02:40:47;8.00;99.90
31038;DHT22;17702;47.590;7.666;2023-04-03T02:43:13;8.00;99.90
31038;DHT22;17702;47.590;7.666;2023-04-03T02:45:38;8.00;99.90
31038;DHT22;17702;47.590;7.666;2023-04-03T02:48:04;7.90;99.90
31038;DHT22;17702;47.590;7.666;2023-04-03T02:50:29;7.90;99.90
31038;DHT22;17702;47.590;7.666;2023-04-03T02:52:55;7.90;99.90
31038;DHT22;17702;47.590;7.666;2023-04-03T02:55:20;7.80;99.90
31038;DHT22;17702;47.590;7.666;2023-04-03T02:57:46;7.90;99.90
31038;DHT22;17702;47.590;7.666;2023-04-03T03:00:11;7.90;99.90
31038;DHT22;17702;47.590;7.666;2023-04-03T03:02:38;7.90;99.90
31038;DHT22;17702;47.590;7.666;2023-04-03T03:05:03;7.80;99.90
31038;DHT22;17702;47.590;7.666;2023-04-03T03:07:29;7.70;99.90
31038;DHT22;17702;47.590;7.666;2023-04-03T03:09:54;7.70;99.90
31038;DHT22;17702;47.590;7.666;2023-04-03T03:12:20;7.70;99.90
31038;DHT22;17702;47.590;7.666;2023-04-03T03:14:47;7.60;99.90
31038;DHT22;17702;47.590;7.666;2023-04-03T03:17:16;7.70;99.90
31038;DHT22;17702;47.590;7.666;2023-04-03T03:19:42;7.70;99.90
31038;DHT22;17702;47.590;7.666;2023-04-03T03:22:07;7.70;99.90
31038;DHT22;17702;47.590;7.666;2023-04-03T03:24:33;7.60;99.90
31038;DHT22;17702;47.590;7.666;2023-04-03T03:26:58;7.60;99.90
31038;DHT22;17702;47.590;7.666;2023-04-03T03:29:24;7.50;99.90
31038;DHT22;17702;47.590;7.666;2023-04-03T03:31:49;7.60;99.90
31038;DHT22;17702;47.590;7.666;2023-04-03T03:34:15;7.50;99.90
31038;DHT22;17702;47.590;7.666;2023-04-03T03:36:40;7.50;99.90
31038;DHT22;17702;47.590;7.666;2023-04-03T03:39:06;7.50;99.90
31038;DHT22;17702;47.590;7.666;2023-04-03T03:41:31;7.50;99.90
31038;DHT22;17702;47.590;7.666;2023-04-03T03:43:57;7.50;99.90
31038;DHT22;17702;47.590;7.666;2023-04-03T03:46:23;7.60;99.90
31038;DHT22;17702;47.590;7.666;2023-04-03T03:48:48;7.50;99.90
31038;DHT22;17702;47.590;7.666;2023-04-03T03:51:13;7.50;99.90
31038;DHT22;17702;47.590;7.666;2023-04-03T03:53:39;7.50;99.90
31038;DHT22;17702;47.590;7.666;2023-04-03T03:56:05;7.40;99.90
31038;DHT22;17702;47.590;7.666;2023-04-03T03:58:31;7.40;99.90
31038;DHT22;17702;47.590;7.666;2023-04-03T04:01:00;7.40;99.90
31038;DHT22;17702;47.590;7.666;2023-04-03T04:03:25;7.40;99.90
31038;DHT22;17702;47.590;7.666;2023-04-03T04:05:51;7.50;99.90
31038;DHT22;17702;47.590;7.666;2023-04-03T04:08:16;7.50;99.90
31038;DHT22;17702;47.590;7.666;2023-04-03T04:10:42;7.50;99.90
31038;DHT22;17702;47.590;7.666;2023-04-03T04:13:07;7.50;99.90
31038;DHT22;17702;47.590;7.666;2023-04-03T04:15:33;7.50;99.90
31038;DHT22;17702;47.590;7.666;2023-04-03T04:17:59;7.50;99.90
31038;DHT22;17702;47.590;7.666;2023-04-03T04:20:24;7.50;99.90
31038;DHT22;17702;47.590;7.666;2023-04-03T04:22:49;7.40;99.90
31038;DHT22;17702;47.590;7.666;2023-04-03T04:25:15;7.50;99.90
31038;DHT22;17702;47.590;7.666;2023-04-03T04:27:41;7.50;99.90
31038;DHT22;17702;47.590;7.666;2023-04-03T04:30:06;7.40;99.90
31038;DHT22;17702;47.590;7.666;2023-04-03T04:32:32;7.40;99.90
31038;DHT22;17702;47.590;7.666;2023-04-03T04:34:58;7.40;99.90
31038;DHT22;17702;47.590;7.666;2023-04-03T04:37:23;7.40;99.90
31038;DHT22;17702;47.590;7.666;2023-04-03T04:39:49;7.40;99.90
31038;DHT22;17702;47.590;7.666;2023-04-03T04:42:15;7.40;99.90
31038;DHT22;17702;47.590;7.666;2023-04-03T04:44:40;7.40;99.90
31038;DHT22;17702;47.590;7.666;2023-04-03T04:47:06;7.30;99.90
31038;DHT22;17702;47.590;7.666;2023-04-03T04:49:31;7.30;99.90
31038;DHT22;17702;47.590;7.666;2023-04-03T04:51:57;7.40;99.90
31038;DHT22;17702;47.590;7.666;2023-04-03T04:54:22;7.30;99.90
31038;DHT22;17702;47.590;7.666;2023-04-03T04:56:48;7.40;99.90
31038;DHT22;17702;47.590;7.666;2023-04-03T04:59:13;7.30;99.90
31038;DHT22;17702;47.590;7.666;2023-04-03T05:01:39;7.30;99.90
31038;DHT22;17702;47.590;7.666;2023-04-03T05:04:04;7.20;99.90
31038;DHT22;17702;47.590;7.666;2023-04-03T05:06:30;7.20;99.90
31038;DHT22;17702;47.590;7.666;2023-04-03T05:08:57;7.30;99.90
31038;DHT22;17702;47.590;7.666;2023-04-03T05:11:23;7.30;99.90
31038;DHT22;17702;47.590;7.666;2023-04-03T05:13:48;7.30;99.90
31038;DHT22;17702;47.590;7.666;2023-04-03T05:16:14;7.30;99.90
31038;DHT22;17702;47.590;7.666;2023-04-03T05:18:39;7.30;99.90
31038;DHT22;17702;47.590;7.666;2023-04-03T05:21:05;7.20;99.90
31038;DHT22;17702;47.590;7.666;2023-04-03T05:23:30;7.20;99.90
31038;DHT22;17702;47.590;7.666;2023-04-03T05:25:56;7.10;99.90
31038;DHT22;17702;47.590;7.666;2023-04-03T05:28:21;7.10;99.90
31038;DHT22;17702;47.590;7.666;2023-04-03T05:30:52;7.10;99.90
31038;DHT22;17702;47.590;7.666;2023-04-03T05:33:18;7.10;99.90
31038;DHT22;17702;47.590;7.666;2023-04-03T05:35:43;7.00;99.90
31038;DHT22;17702;47.590;7.666;2023-04-03T05:38:09;7.00;99.90
31038;DHT22;17702;47.590;7.666;2023-04-03T05:40:34;7.20;99.90
31038;DHT22;17702;47.590;7.666;2023-04-03T05:43:00;7.20;99.90
31038;DHT22;17702;47.590;7.666;2023-04-03T05:45:25;7.20;99.90
31038;DHT22;17702;47.590;7.666;2023-04-03T05:47:51;7.20;99.90
31038;DHT22;17702;47.590;7.666;2023-04-03T05:50:16;7.10;99.90
31038;DHT22;17702;47.590;7.666;2023-04-03T05:52:43;7.10;99.90
31038;DHT22;17702;47.590;7.666;2023-04-03T05:55:09;7.10;99.90
31038;DHT22;17702;47.590;7.666;2023-04-03T05:57:35;7.10;99.90
31038;DHT22;17702;47.590;7.666;2023-04-03T06:00:00;7.10;99.90
31038;DHT22;17702;47.590;7.666;2023-04-03T06:02:26;7.10;99.90
31038;DHT22;17702;47.590;7.666;2023-04-03T06:04:52;7.10;99.90
31038;DHT22;17702;47.590;7.666;2023-04-03T06:07:18;7.00;99.90
31038;DHT22;17702;47.590;7.666;2023-04-03T06:09:46;7.00;99.90
31038;DHT22;17702;47.590;7.666;2023-04-03T06:12:12;7.00;99.90
31038;DHT22;17702;47.590;7.666;2023-04-03T06:14:37;7.00;99.90
31038;DHT22;17702;47.590;7.666;2023-04-03T06:17:03;7.00;99.90
31038;DHT22;17702;47.590;7.666;2023-04-03T06:19:29;7.00;99.90
31038;DHT22;17702;47.590;7.666;2023-04-03T06:21:55;6.90;99.90
31038;DHT22;17702;47.590;7.666;2023-04-03T06:24:21;6.90;99.90
31038;DHT22;17702;47.590;7.666;2023-04-03T06:26:48;6.90;99.90
31038;DHT22;17702;47.590;7.666;2023-04-03T06:29:15;6.90;99.90
31038;DHT22;17702;47.590;7.666;2023-04-03T06:31:40;6.90;99.90
31038;DHT22;17702;47.590;7.666;2023-04-03T06:34:06;6.90;99.90
31038;DHT22;17702;47.590;7.666;2023-04-03T06:36:32;6.90;99.90
31038;DHT22;17702;47.590;7.666;2023-04-03T06:38:58;7.00;99.90
31038;DHT22;17702;47.590;7.666;2023-04-03T06:41:23;7.00;99.90
31038;DHT22;17702;47.590;7.666;2023-04-03T06:43:49;7.10;99.90
31038;DHT22;17702;47.590;7.666;2023-04-03T06:46:15;7.10;99.90
31038;DHT22;17702;47.590;7.666;2023-04-03T06:48:41;7.00;99.90
31038;DHT22;17702;47.590;7.666;2023-04-03T06:51:10;6.90;99.90
31038;DHT22;17702;47.590;7.666;2023-04-03T06:53:36;7.00;99.90
31038;DHT22;17702;47.590;7.666;2023-04-03T06:56:02;7.00;99.90
31038;DHT22;17702;47.590;7.666;2023-04-03T06:58:28;6.90;99.90
31038;DHT22;17702;47.590;7.666;2023-04-03T07:00:53;8.10;99.90
31038;DHT22;17702;47.590;7.666;2023-04-03T07:03:19;7.90;99.90
31038;DHT22;17702;47.590;7.666;2023-04-03T07:05:44;7.70;99.90
31038;DHT22;17702;47.590;7.666;2023-04-03T07:08:11;7.70;99.90
31038;DHT22;17702;47.590;7.666;2023-04-03T07:10:37;7.60;99.90
31038;DHT22;17702;47.590;7.666;2023-04-03T07:13:03;7.40;99.90
31038;DHT22;17702;47.590;7.666;2023-04-03T07:15:28;7.40;99.90
31038;DHT22;17702;47.590;7.666;2023-04-03T07:17:55;7.40;99.90
31038;DHT22;17702;47.590;7.666;2023-04-03T07:20:21;7.40;99.90
31038;DHT22;17702;47.590;7.666;2023-04-03T07:22:46;7.40;99.90
31038;DHT22;17702;47.590;7.666;2023-04-03T07:25:12;7.40;99.90
31038;DHT22;17702;47.590;7.666;2023-04-03T07:27:37;7.40;99.90
31038;DHT22;17702;47.590;7.666;2023-04-03T07:30:03;7.60;99.90
31038;DHT22;17702;47.590;7.666;2023-04-03T07:32:28;7.70;99.90
31038;DHT22;17702;47.590;7.666;2023-04-03T07:34:54;7.80;99.90
31038;DHT22;17702;47.590;7.666;2023-04-03T07:37:20;7.90;99.90
31038;DHT22;17702;47.590;7.666;2023-04-03T07:39:45;8.00;99.90
31038;DHT22;17702;47.590;7.666;2023-04-03T07:42:11;7.90;99.90
31038;DHT22;17702;47.590;7.666;2023-04-03T07:44:37;8.00;99.90
31038;DHT22;17702;47.590;7.666;2023-04-03T07:47:03;8.00;99.90
31038;DHT22;17702;47.590;7.666;2023-04-03T07:49:28;8.00;99.00
31038;DHT22;17702;47.590;7.666;2023-04-03T07:51:54;8.00;98.60
31038;DHT22;17702;47.590;7.666;2023-04-03T07:54:19;8.10;98.30
31038;DHT22;17702;47.590;7.666;2023-04-03T07:56:45;8.00;97.20
31038;DHT22;17702;47.590;7.666;2023-04-03T07:59:10;7.90;98.90
31038;DHT22;17702;47.590;7.666;2023-04-03T08:01:36;7.90;99.40
31038;DHT22;17702;47.590;7.666;2023-04-03T08:04:02;7.90;98.60
31038;DHT22;17702;47.590;7.666;2023-04-03T08:06:27;7.90;97.80
31038;DHT22;17702;47.590;7.666;2023-04-03T08:08:55;7.90;99.90
31038;DHT22;17702;47.590;7.666;2023-04-03T08:11:21;8.10;99.90
31038;DHT22;17702;47.590;7.666;2023-04-03T08:13:46;8.10;99.90
31038;DHT22;17702;47.590;7.666;2023-04-03T08:16:13;8.10;97.60
31038;DHT22;17702;47.590;7.666;2023-04-03T08:18:38;8.10;99.60
31038;DHT22;17702;47.590;7.666;2023-04-03T08:21:05;8.20;99.90
31038;DHT22;17702;47.590;7.666;2023-04-03T08:23:30;8.20;99.90
31038;DHT22;17702;47.590;7.666;2023-04-03T08:25:56;8.20;97.50
31038;DHT22;17702;47.590;7.666;2023-04-03T08:28:21;8.20;96.90
31038;DHT22;17702;47.590;7.666;2023-04-03T08:30:47;8.20;97.00
31038;DHT22;17702;47.590;7.666;2023-04-03T08:33:12;8.10;94.40
31038;DHT22;17702;47.590;7.666;2023-04-03T08:35:39;8.10;97.40
31038;DHT22;17702;47.590;7.666;2023-04-03T08:38:05;8.10;96.90
31038;DHT22;17702;47.590;7.666;2023-04-03T08:40:31;8.20;98.10
31038;DHT22;17702;47.590;7.666;2023-04-03T08:50:41;8.30;96.60
31038;DHT22;17702;47.590;7.666;2023-04-03T08:53:12;8.30;96.00
31038;DHT22;17702;47.590;7.666;2023-04-03T08:55:45;8.40;97.10
31038;DHT22;17702;47.590;7.666;2023-04-03T08:58:20;8.40;96.80
31038;DHT22;17702;47.590;7.666;2023-04-03T09:00:48;8.40;95.90
31038;DHT22;17702;47.590;7.666;2023-04-03T09:03:16;8.40;96.10
31038;DHT22;17702;47.590;7.666;2023-04-03T09:08:29;8.50;93.40
31038;DHT22;17702;47.590;7.666;2023-04-03T09:11:04;8.50;94.20
31038;DHT22;17702;47.590;7.666;2023-04-03T09:16:35;8.40;90.30
31038;DHT22;17702;47.590;7.666;2023-04-03T09:18:58;8.40;90.50
31038;DHT22;17702;47.590;7.666;2023-04-03T09:21:37;8.40;89.80
31038;DHT22;17702;47.590;7.666;2023-04-03T09:24:04;8.40;93.90
31038;DHT22;17702;47.590;7.666;2023-04-03T09:26:33;8.40;94.20
31038;DHT22;17702;47.590;7.666;2023-04-03T09:29:02;8.40;90.80
31038;DHT22;17702;47.590;7.666;2023-04-03T09:31:31;8.50;88.70
31038;DHT22;17702;47.590;7.666;2023-04-03T09:34:02;8.50;88.30
31038;DHT22;17702;47.590;7.666;2023-04-03T09:39:14;8.50;86.90
31038;DHT22;17702;47.590;7.666;2023-04-03T09:41:40;8.60;89.50
31038;DHT22;17702;47.590;7.666;2023-04-03T09:44:18;8.60;87.10
31038;DHT22;17702;47.590;7.666;2023-04-03T09:46:45;8.70;87.70
31038;DHT22;17702;47.590;7.666;2023-04-03T09:49:11;8.70;82.70
31038;DHT22;17702;47.590;7.666;2023-04-03T09:51:37;8.70;85.30
31038;DHT22;17702;47.590;7.666;2023-04-03T09:59:18;8.90;82.00
31038;DHT22;17702;47.590;7.666;2023-04-03T10:01:56;8.90;80.80
31038;DHT22;17702;47.590;7.666;2023-04-03T10:04:22;8.90;84.00
31038;DHT22;17702;47.590;7.666;2023-04-03T10:09:20;9.20;81.80
31038;DHT22;17702;47.590;7.666;2023-04-03T10:14:24;9.60;82.80
31038;DHT22;17702;47.590;7.666;2023-04-03T10:19:45;10.40;78.40
31038;DHT22;17702;47.590;7.666;2023-04-03T10:22:18;10.60;81.90
31038;DHT22;17702;47.590;7.666;2023-04-03T10:27:48;10.60;72.20
31038;DHT22;17702;47.590;7.666;2023-04-03T10:30:19;10.40;70.40
31038;DHT22;17702;47.590;7.666;2023-04-03T10:56:03;11.30;62.00
31038;DHT22;17702;47.590;7.666;2023-04-03T11:00:57;11.40;64.40
31038;DHT22;17702;47.590;7.666;2023-04-03T11:03:29;11.70;68.70
31038;DHT22;17702;47.590;7.666;2023-04-03T11:05:56;11.80;63.50
31038;DHT22;17702;47.590;7.666;2023-04-03T11:08:29;11.80;61.40
31038;DHT22;17702;47.590;7.666;2023-04-03T11:10:58;11.80;57.20
31038;DHT22;17702;47.590;7.666;2023-04-03T11:13:32;11.80;62.90
31038;DHT22;17702;47.590;7.666;2023-04-03T11:15:58;11.90;58.50
31038;DHT22;17702;47.590;7.666;2023-04-03T11:18:27;12.10;60.50
31038;DHT22;17702;47.590;7.666;2023-04-03T11:21:03;12.30;63.20
31038;DHT22;17702;47.590;7.666;2023-04-03T11:23:32;12.60;60.00
31038;DHT22;17702;47.590;7.666;2023-04-03T11:26:11;12.30;57.00
31038;DHT22;17702;47.590;7.666;2023-04-03T11:28:37;12.10;61.40
31038;DHT22;17702;47.590;7.666;2023-04-03T11:31:12;12.30;61.10
31038;DHT22;17702;47.590;7.666;2023-04-03T11:33:43;12.50;60.20
31038;DHT22;17702;47.590;7.666;2023-04-03T11:36:11;12.60;58.70
31038;DHT22;17702;47.590;7.666;2023-04-03T11:38:38;12.40;52.10
31038;DHT22;17702;47.590;7.666;2023-04-03T11:41:08;12.30;55.40
31038;DHT22;17702;47.590;7.666;2023-04-03T11:43:37;12.20;53.10
31038;DHT22;17702;47.590;7.666;2023-04-03T11:46:05;12.20;56.60
31038;DHT22;17702;47.590;7.666;2023-04-03T11:53:38;12.30;59.80
31038;DHT22;17702;47.590;7.666;2023-04-03T11:58:32;12.30;58.40
31038;DHT22;17702;47.590;7.666;2023-04-03T12:00:59;12.10;59.60
31038;DHT22;17702;47.590;7.666;2023-04-03T12:39:26;11.20;59.50
31038;DHT22;17702;47.590;7.666;2023-04-03T12:42:05;11.10;57.30
31038;DHT22;17702;47.590;7.666;2023-04-03T12:47:32;10.90;61.60
31038;DHT22;17702;47.590;7.666;2023-04-03T12:50:13;10.90;61.80
31038;DHT22;17702;47.590;7.666;2023-04-03T12:52:41;10.90;62.00
31038;DHT22;17702;47.590;7.666;2023-04-03T12:55:14;10.80;59.20
31038;DHT22;17702;47.590;7.666;2023-04-03T12:57:44;10.70;62.20
31038;DHT22;17702;47.590;7.666;2023-04-03T13:02:45;10.60;57.90
31038;DHT22;17702;47.590;7.666;2023-04-03T13:05:14;10.60;59.80
31038;DHT22;17702;47.590;7.666;2023-04-03T13:07:42;10.60;59.60
31038;DHT22;17702;47.590;7.666;2023-04-03T13:12:52;10.60;59.70
31038;DHT22;17702;47.590;7.666;2023-04-03T13:15:22;10.60;61.10
31038;DHT22;17702;47.590;7.666;2023-04-03T13:17:48;10.50;63.90
31038;DHT22;17702;47.590;7.666;2023-04-03T13:22:49;10.50;61.20
31038;DHT22;17702;47.590;7.666;2023-04-03T13:25:17;10.50;61.70
31038;DHT22;17702;47.590;7.666;2023-04-03T13:27:43;10.50;60.90
31038;DHT22;17702;47.590;7.666;2023-04-03T13:30:24;10.50;62.40
31038;DHT22;17702;47.590;7.666;2023-04-03T13:32:50;10.50;63.30
31038;DHT22;17702;47.590;7.666;2023-04-03T13:35:26;10.50;60.30
31038;DHT22;17702;47.590;7.666;2023-04-03T13:37:56;10.50;61.00
31038;DHT22;17702;47.590;7.666;2023-04-03T13:40:22;10.50;57.70
31038;DHT22;17702;47.590;7.666;2023-04-03T13:42:57;10.40;60.00
31038;DHT22;17702;47.590;7.666;2023-04-03T13:45:29;10.30;61.30
31038;DHT22;17702;47.590;7.666;2023-04-03T13:50:50;10.30;64.30
31038;DHT22;17702;47.590;7.666;2023-04-03T13:53:16;10.30;60.70
31038;DHT22;17702;47.590;7.666;2023-04-03T13:58:27;10.30;57.90
31038;DHT22;17702;47.590;7.666;2023-04-03T14:05:53;10.30;62.10
31038;DHT22;17702;47.590;7.666;2023-04-03T14:08:19;10.30;59.50
31038;DHT22;17702;47.590;7.666;2023-04-03T14:10:45;10.30;58.90
31038;DHT22;17702;47.590;7.666;2023-04-03T14:13:21;10.20;62.90
31038;DHT22;17702;47.590;7.666;2023-04-03T14:15:48;10.20;59.90
31038;DHT22;17702;47.590;7.666;2023-04-03T14:18:16;10.10;60.00
31038;DHT22;17702;47.590;7.666;2023-04-03T14:20:44;10.10;61.50
31038;DHT22;17702;47.590;7.666;2023-04-03T14:23:11;10.20;62.50
31038;DHT22;17702;47.590;7.666;2023-04-03T14:25:37;10.20;61.20
31038;DHT22;17702;47.590;7.666;2023-04-03T14:28:14;10.10;62.60
31038;DHT22;17702;47.590;7.666;2023-04-03T14:30:40;10.10;61.20
31038;DHT22;17702;47.590;7.666;2023-04-03T14:33:19;10.10;61.00
31038;DHT22;17702;47.590;7.666;2023-04-03T14:35:45;10.10;62.20
31038;DHT22;17702;47.590;7.666;2023-04-03T14:38:12;10.20;59.70
31038;DHT22;17702;47.590;7.666;2023-04-03T14:40:43;10.20;57.60
31038;DHT22;17702;47.590;7.666;2023-04-03T14:43:09;10.40;59.00
31038;DHT22;17702;47.590;7.666;2023-04-03T14:45:37;10.50;57.80
31038;DHT22;17702;47.590;7.666;2023-04-03T14:48:03;10.60;59.00
31038;DHT22;17702;47.590;7.666;2023-04-03T14:50:29;10.50;59.10
31038;DHT22;17702;47.590;7.666;2023-04-03T14:52:55;10.40;57.40
31038;DHT22;17702;47.590;7.666;2023-04-03T14:55:22;10.30;59.20
31038;DHT22;17702;47.590;7.666;2023-04-03T14:57:48;10.30;60.70
31038;DHT22;17702;47.590;7.666;2023-04-03T15:00:17;10.30;61.70
31038;DHT22;17702;47.590;7.666;2023-04-03T15:02:43;10.30;59.20
31038;DHT22;17702;47.590;7.666;2023-04-03T15:05:09;10.20;57.30
31038;DHT22;17702;47.590;7.666;2023-04-03T15:07:36;10.20;57.30
31038;DHT22;17702;47.590;7.666;2023-04-03T15:10:16;10.20;55.60
31038;DHT22;17702;47.590;7.666;2023-04-03T15:12:42;10.10;57.90
31038;DHT22;17702;47.590;7.666;2023-04-03T15:15:08;10.20;56.50
31038;DHT22;17702;47.590;7.666;2023-04-03T15:17:34;10.10;57.40
31038;DHT22;17702;47.590;7.666;2023-04-03T15:20:00;10.20;59.20
31038;DHT22;17702;47.590;7.666;2023-04-03T15:22:26;10.10;58.40
31038;DHT22;17702;47.590;7.666;2023-04-03T15:24:52;10.10;56.70
31038;DHT22;17702;47.590;7.666;2023-04-03T15:27:18;10.10;57.60
31038;DHT22;17702;47.590;7.666;2023-04-03T15:29:44;10.10;57.30
31038;DHT22;17702;47.590;7.666;2023-04-03T15:32:10;10.20;55.40
31038;DHT22;17702;47.590;7.666;2023-04-03T15:34:36;10.10;54.00
31038;DHT22;17702;47.590;7.666;2023-04-03T15:37:01;10.10;54.40
31038;DHT22;17702;47.590;7.666;2023-04-03T15:39:27;10.00;53.80
31038;DHT22;17702;47.590;7.666;2023-04-03T15:41:52;10.00;55.50
31038;DHT22;17702;47.590;7.666;2023-04-03T15:44:19;10.00;57.00
31038;DHT22;17702;47.590;7.666;2023-04-03T15:46:45;10.00;56.80
31038;DHT22;17702;47.590;7.666;2023-04-03T15:49:11;10.00;59.10
31038;DHT22;17702;47.590;7.666;2023-04-03T15:51:36;10.00;60.20
31038;DHT22;17702;47.590;7.666;2023-04-03T15:54:02;10.00;58.30
31038;DHT22;17702;47.590;7.666;2023-04-03T15:56:27;10.00;60.20
31038;DHT22;17702;47.590;7.666;2023-04-03T15:58:53;10.00;58.40
31038;DHT22;17702;47.590;7.666;2023-04-03T16:01:18;9.90;60.30
31038;DHT22;17702;47.590;7.666;2023-04-03T16:03:44;9.90;58.00
31038;DHT22;17702;47.590;7.666;2023-04-03T16:06:13;9.90;59.40
31038;DHT22;17702;47.590;7.666;2023-04-03T16:08:39;9.90;58.20
31038;DHT22;17702;47.590;7.666;2023-04-03T16:11:05;9.90;59.70
31038;DHT22;17702;47.590;7.666;2023-04-03T16:13:30;9.80;59.10
31038;DHT22;17702;47.590;7.666;2023-04-03T16:15:56;9.70;58.20
31038;DHT22;17702;47.590;7.666;2023-04-03T16:18:22;9.80;57.90
31038;DHT22;17702;47.590;7.666;2023-04-03T16:20:47;9.70;58.70
31038;DHT22;17702;47.590;7.666;2023-04-03T16:23:13;9.60;59.50
31038;DHT22;17702;47.590;7.666;2023-04-03T16:25:38;9.60;56.20
31038;DHT22;17702;47.590;7.666;2023-04-03T16:28:04;9.60;57.70
31038;DHT22;17702;47.590;7.666;2023-04-03T16:30:30;9.60;56.60
31038;DHT22;17702;47.590;7.666;2023-04-03T16:32:56;9.50;56.00
31038;DHT22;17702;47.590;7.666;2023-04-03T16:35:21;9.50;57.80
31038;DHT22;17702;47.590;7.666;2023-04-03T16:37:47;9.50;56.70
31038;DHT22;17702;47.590;7.666;2023-04-03T16:40:13;9.50;57.00
31038;DHT22;17702;47.590;7.666;2023-04-03T16:42:39;9.50;57.50
31038;DHT22;17702;47.590;7.666;2023-04-03T16:45:05;9.50;57.40
31038;DHT22;17702;47.590;7.666;2023-04-03T16:47:31;9.50;57.60
31038;DHT22;17702;47.590;7.666;2023-04-03T16:49:56;9.50;56.90
31038;DHT22;17702;47.590;7.666;2023-04-03T16:52:22;9.40;57.10
31038;DHT22;17702;47.590;7.666;2023-04-03T16:54:47;9.40;57.70
31038;DHT22;17702;47.590;7.666;2023-04-03T16:57:13;9.30;61.10
31038;DHT22;17702;47.590;7.666;2023-04-03T16:59:38;9.20;60.40
31038;DHT22;17702;47.590;7.666;2023-04-03T17:02:04;9.10;59.90
31038;DHT22;17702;47.590;7.666;2023-04-03T17:04:29;9.10;61.30
31038;DHT22;17702;47.590;7.666;2023-04-03T17:06:55;9.10;60.50
31038;DHT22;17702;47.590;7.666;2023-04-03T17:09:21;9.10;59.70
31038;DHT22;17702;47.590;7.666;2023-04-03T17:11:47;9.10;58.90
31038;DHT22;17702;47.590;7.666;2023-04-03T17:14:13;9.10;57.40
31038;DHT22;17702;47.590;7.666;2023-04-03T17:16:39;9.10;56.60
31038;DHT22;17702;47.590;7.666;2023-04-03T17:19:04;9.00;58.10
31038;DHT22;17702;47.590;7.666;2023-04-03T17:21:30;9.00;59.20
31038;DHT22;17702;47.590;7.666;2023-04-03T17:23:57;8.90;60.40
31038;DHT22;17702;47.590;7.666;2023-04-03T17:26:24;8.80;61.40
31038;DHT22;17702;47.590;7.666;2023-04-03T17:28:51;8.80;63.30
31038;DHT22;17702;47.590;7.666;2023-04-03T17:31:16;8.80;62.00
31038;DHT22;17702;47.590;7.666;2023-04-03T17:33:41;8.80;60.20
31038;DHT22;17702;47.590;7.666;2023-04-03T17:36:07;8.80;62.60
31038;DHT22;17702;47.590;7.666;2023-04-03T17:38:33;8.80;59.60
31038;DHT22;17702;47.590;7.666;2023-04-03T17:40:59;8.80;60.70
31038;DHT22;17702;47.590;7.666;2023-04-03T17:43:25;8.80;58.90
31038;DHT22;17702;47.590;7.666;2023-04-03T17:45:51;8.80;59.10
31038;DHT22;17702;47.590;7.666;2023-04-03T17:48:17;8.70;60.50
31038;DHT22;17702;47.590;7.666;2023-04-03T17:50:42;8.70;61.00
31038;DHT22;17702;47.590;7.666;2023-04-03T17:53:08;8.60;60.30